< < Back
Terminal Aerodrome Forecast


Current Version              Previous Versions:   1  2  3  4  5  6  7  8  9  

Terminal Aerodrome Forecast

364
FTUS44 KMRX 271735
TAFTYS
TAF
KTYS 271735Z 2718/2818 32005KT P6SM SCT015 OVC025
      TEMPO 2718/2720 P6SM BKN015
     FM272000 35006KT P6SM OVC020
     FM280200 34006KT P6SM OVC030
     FM280600 VRB03KT P6SM SCT035
     FM281200 VRB03KT P6SM SKC=



Latest METAR

707
SAUS80 KWBC 272300 RRB
MTRTYS
METAR KTYS 272253Z 00000KT 10SM FEW021 OVC026 02/M02 A3007 RMK AO2
SLP190 T00171022


USA.gov is the U.S. government's official web portal to all federal, state and local government web resources and services.